createdAt,value
2017-08-05T00:00:03.469Z,21.58
2017-08-05T00:00:07.600Z,21.57
2017-08-05T00:00:11.954Z,21.57
2017-08-05T00:00:16.420Z,21.57
2017-08-05T00:00:20.776Z,21.57
2017-08-05T00:00:25.129Z,21.57
2017-08-05T00:00:29.127Z,21.58
2017-08-05T00:00:33.596Z,21.58
2017-08-05T00:00:37.940Z,21.57
2017-08-05T00:00:42.280Z,21.58
2017-08-05T00:00:46.512Z,21.57
2017-08-05T00:00:50.872Z,21.57
2017-08-05T00:00:55.221Z,21.57
2017-08-05T00:00:59.574Z,21.57
2017-08-05T00:01:04.177Z,21.57
2017-08-05T00:01:08.627Z,21.57
2017-08-05T00:01:12.978Z,21.57
2017-08-05T00:01:17.466Z,21.57
2017-08-05T00:01:21.691Z,21.58
2017-08-05T00:01:26.161Z,21.57
2017-08-05T00:01:30.390Z,21.57
2017-08-05T00:01:34.734Z,21.57
2017-08-05T00:01:39.096Z,21.57
2017-08-05T00:01:43.605Z,21.58
2017-08-05T00:01:48.079Z,21.57
2017-08-05T00:01:52.433Z,21.57
2017-08-05T00:01:56.912Z,21.57
2017-08-05T00:02:01.256Z,21.57
2017-08-05T00:02:05.598Z,21.57
2017-08-05T00:02:10.084Z,21.58
2017-08-05T00:02:14.558Z,21.57
2017-08-05T00:02:18.905Z,21.57
2017-08-05T00:02:23.377Z,21.58
2017-08-05T00:02:27.838Z,21.57
2017-08-05T00:02:32.304Z,21.58
2017-08-05T00:02:36.672Z,21.58
2017-08-05T00:02:41.140Z,21.58
2017-08-05T00:02:45.615Z,21.57
2017-08-05T00:02:50.068Z,21.58
2017-08-05T00:02:54.536Z,21.57
2017-08-05T00:02:58.892Z,21.58
2017-08-05T00:03:03.369Z,21.57
2017-08-05T00:03:07.834Z,21.58
2017-08-05T00:03:12.299Z,21.57
2017-08-05T00:03:16.558Z,21.57
2017-08-05T00:03:21.036Z,21.57
2017-08-05T00:03:25.499Z,21.58
2017-08-05T00:03:29.752Z,21.58
2017-08-05T00:03:34.117Z,21.57
2017-08-05T00:03:38.584Z,21.57
2017-08-05T00:03:42.926Z,21.58
2017-08-05T00:03:47.399Z,21.58
2017-08-05T00:03:51.856Z,21.58
2017-08-05T00:03:55.960Z,21.57
2017-08-05T00:04:00.427Z,21.58
2017-08-05T00:04:04.891Z,21.57
2017-08-05T00:04:09.135Z,21.57
2017-08-05T00:04:13.591Z,21.58
2017-08-05T00:04:17.918Z,21.57
2017-08-05T00:04:22.387Z,21.58
2017-08-05T00:04:26.852Z,21.58
2017-08-05T00:04:31.324Z,21.58
2017-08-05T00:04:35.807Z,21.57
2017-08-05T00:04:40.280Z,21.58
2017-08-05T00:04:44.500Z,21.58
2017-08-05T00:04:48.969Z,21.58
2017-08-05T00:04:53.450Z,21.57
2017-08-05T00:04:57.921Z,21.57
2017-08-05T00:05:02.263Z,21.57
2017-08-05T00:05:06.740Z,21.57
2017-08-05T00:05:11.103Z,21.57
2017-08-05T00:05:15.550Z,21.57
2017-08-05T00:05:19.883Z,21.56
2017-08-05T00:05:24.339Z,21.57
2017-08-05T00:05:28.802Z,21.57
2017-08-05T00:05:33.040Z,21.57
2017-08-05T00:05:37.504Z,21.56
2017-08-05T00:05:41.862Z,21.56
2017-08-05T00:05:46.324Z,21.57
2017-08-05T00:05:50.781Z,21.56
2017-08-05T00:05:55.020Z,21.57
2017-08-05T00:05:59.258Z,21.57
2017-08-05T00:06:03.593Z,21.57
2017-08-05T00:06:08.048Z,21.57
2017-08-05T00:06:12.274Z,21.57
2017-08-05T00:06:16.745Z,21.56
2017-08-05T00:06:21.089Z,21.57
2017-08-05T00:06:25.566Z,21.56
2017-08-05T00:06:30.043Z,21.57
2017-08-05T00:06:34.502Z,21.57
2017-08-05T00:06:38.974Z,21.57
2017-08-05T00:06:43.442Z,21.56
2017-08-05T00:06:47.907Z,21.56
2017-08-05T00:06:52.252Z,21.56
2017-08-05T00:06:56.477Z,21.57
2017-08-05T00:07:00.946Z,21.57
2017-08-05T00:07:05.345Z,21.57
2017-08-05T00:07:09.344Z,21.57
2017-08-05T00:07:13.723Z,21.56
2017-08-05T00:07:18.083Z,21.57
2017-08-05T00:07:22.437Z,21.56
2017-08-05T00:07:26.903Z,21.56
2017-08-05T00:07:31.367Z,21.56
2017-08-05T00:07:35.830Z,21.56
2017-08-05T00:07:40.199Z,21.56
2017-08-05T00:07:44.553Z,21.56
2017-08-05T00:07:49.028Z,21.56
2017-08-05T00:07:53.489Z,21.57
2017-08-05T00:07:57.727Z,21.57
2017-08-05T00:08:02.290Z,21.56
2017-08-05T00:08:06.663Z,21.57
2017-08-05T00:08:11.116Z,21.57
2017-08-05T00:08:15.568Z,21.56
2017-08-05T00:08:19.926Z,21.57
2017-08-05T00:08:24.391Z,21.56
2017-08-05T00:08:28.742Z,21.55
2017-08-05T00:08:33.202Z,21.57
2017-08-05T00:08:37.659Z,21.56
2017-08-05T00:08:42.142Z,21.56
2017-08-05T00:08:46.375Z,21.56
2017-08-05T00:08:50.842Z,21.56
2017-08-05T00:08:55.300Z,21.57
2017-08-05T00:08:59.775Z,21.56
2017-08-05T00:09:04.563Z,21.56
2017-08-05T00:09:09.012Z,21.56
2017-08-05T00:09:13.486Z,21.56
2017-08-05T00:09:17.963Z,21.56
2017-08-05T00:09:22.430Z,21.56
2017-08-05T00:09:26.868Z,21.56
2017-08-05T00:09:31.334Z,21.57
2017-08-05T00:09:35.804Z,21.56
2017-08-05T00:09:40.026Z,21.56
2017-08-05T00:09:44.371Z,21.56
2017-08-05T00:09:48.745Z,21.56
2017-08-05T00:09:53.197Z,21.56
2017-08-05T00:09:57.658Z,21.56
2017-08-05T00:10:02.021Z,21.56
2017-08-05T00:10:06.254Z,21.56
2017-08-05T00:10:10.711Z,21.55
2017-08-05T00:10:15.062Z,21.56
2017-08-05T00:10:19.537Z,21.56
2017-08-05T00:10:23.999Z,21.56
2017-08-05T00:10:28.470Z,21.56
2017-08-05T00:10:32.934Z,21.56
2017-08-05T00:10:37.416Z,21.56
2017-08-05T00:10:41.780Z,21.56
2017-08-05T00:10:46.113Z,21.56
2017-08-05T00:10:50.582Z,21.56
2017-08-05T00:10:55.040Z,21.56
2017-08-05T00:10:59.378Z,21.56
2017-08-05T00:11:04.189Z,21.56
2017-08-05T00:11:08.663Z,21.56
2017-08-05T00:11:13.146Z,21.56
2017-08-05T00:11:17.379Z,21.56
2017-08-05T00:11:21.839Z,21.56
2017-08-05T00:11:26.320Z,21.55
2017-08-05T00:11:30.666Z,21.56
2017-08-05T00:11:35.013Z,21.55
2017-08-05T00:11:39.362Z,21.56
2017-08-05T00:11:43.845Z,21.56
2017-08-05T00:11:48.186Z,21.56
2017-08-05T00:11:52.674Z,21.56
2017-08-05T00:11:57.009Z,21.56
2017-08-05T00:12:01.231Z,21.56
2017-08-05T00:12:05.692Z,21.55
2017-08-05T00:12:10.026Z,21.57
2017-08-05T00:12:14.481Z,21.56
2017-08-05T00:12:18.841Z,21.56
2017-08-05T00:12:23.201Z,21.55
2017-08-05T00:12:27.653Z,21.56
2017-08-05T00:12:32.118Z,21.56
2017-08-05T00:12:36.359Z,21.55
2017-08-05T00:12:40.825Z,21.55
2017-08-05T00:12:45.283Z,21.55
2017-08-05T00:12:49.663Z,21.55
2017-08-05T00:12:54.116Z,21.56
2017-08-05T00:12:58.588Z,21.56
2017-08-05T00:13:03.229Z,21.55
2017-08-05T00:13:07.679Z,21.55
2017-08-05T00:13:12.045Z,21.55
2017-08-05T00:13:16.309Z,21.55
2017-08-05T00:13:20.645Z,21.54
2017-08-05T00:13:25.099Z,21.55
2017-08-05T00:13:29.447Z,21.54
2017-08-05T00:13:33.915Z,21.55
2017-08-05T00:13:38.152Z,21.55
2017-08-05T00:13:42.633Z,21.55
2017-08-05T00:13:47.090Z,21.55
2017-08-05T00:13:51.534Z,21.54
2017-08-05T00:13:56.015Z,21.55
2017-08-05T00:14:00.383Z,21.55
2017-08-05T00:14:04.772Z,21.55
2017-08-05T00:14:08.878Z,21.55
2017-08-05T00:14:13.349Z,21.55
2017-08-05T00:14:17.685Z,21.54
2017-08-05T00:14:22.015Z,21.54
2017-08-05T00:14:26.360Z,21.55
2017-08-05T00:14:30.846Z,21.54
2017-08-05T00:14:35.317Z,21.54
2017-08-05T00:14:39.795Z,21.55
2017-08-05T00:14:44.278Z,21.54
2017-08-05T00:14:48.613Z,21.53
2017-08-05T00:14:53.072Z,21.54
2017-08-05T00:14:57.565Z,21.53
2017-08-05T00:15:02.034Z,21.54
2017-08-05T00:15:06.517Z,21.54
2017-08-05T00:15:10.614Z,21.54
2017-08-05T00:15:15.068Z,21.54
2017-08-05T00:15:19.415Z,21.54
2017-08-05T00:15:23.782Z,21.53
2017-08-05T00:15:28.252Z,21.54
2017-08-05T00:15:32.720Z,21.53
2017-08-05T00:15:37.073Z,21.52
2017-08-05T00:15:41.413Z,21.53
2017-08-05T00:15:45.865Z,21.53
2017-08-05T00:15:50.332Z,21.53
2017-08-05T00:15:54.554Z,21.53
2017-08-05T00:15:58.890Z,21.53
2017-08-05T00:16:03.246Z,21.53
2017-08-05T00:16:07.467Z,21.52
2017-08-05T00:16:11.951Z,21.53
2017-08-05T00:16:16.415Z,21.53
2017-08-05T00:16:20.650Z,21.53
2017-08-05T00:16:25.107Z,21.53
2017-08-05T00:16:29.573Z,21.52
2017-08-05T00:16:33.920Z,21.52
2017-08-05T00:16:38.372Z,21.52
2017-08-05T00:16:42.734Z,21.52
2017-08-05T00:16:46.990Z,21.52
2017-08-05T00:16:51.465Z,21.52
2017-08-05T00:16:55.927Z,21.52
2017-08-05T00:17:00.151Z,21.51
2017-08-05T00:17:04.819Z,21.51
2017-08-05T00:17:09.148Z,21.52
2017-08-05T00:17:13.496Z,21.51
2017-08-05T00:17:17.964Z,21.51
2017-08-05T00:17:22.418Z,21.51
2017-08-05T00:17:26.882Z,21.51
2017-08-05T00:17:31.355Z,21.51
2017-08-05T00:17:35.818Z,21.51
2017-08-05T00:17:40.272Z,21.51
2017-08-05T00:17:44.721Z,21.5
2017-08-05T00:17:49.066Z,21.51
2017-08-05T00:17:53.531Z,21.5
2017-08-05T00:17:58.004Z,21.5
2017-08-05T00:18:02.459Z,21.5
2017-08-05T00:18:06.822Z,21.49
2017-08-05T00:18:11.065Z,21.5
2017-08-05T00:18:15.537Z,21.49
2017-08-05T00:18:19.998Z,21.49
2017-08-05T00:18:24.343Z,21.49
2017-08-05T00:18:28.692Z,21.48
2017-08-05T00:18:33.164Z,21.49
2017-08-05T00:18:37.518Z,21.49
2017-08-05T00:18:41.737Z,21.48
2017-08-05T00:18:46.192Z,21.48
2017-08-05T00:18:50.548Z,21.48
2017-08-05T00:18:54.894Z,21.47
2017-08-05T00:18:59.368Z,21.47
2017-08-05T00:19:03.609Z,21.47
2017-08-05T00:19:08.075Z,21.48
2017-08-05T00:19:12.528Z,21.48
2017-08-05T00:19:16.881Z,21.47
2017-08-05T00:19:21.371Z,21.47
2017-08-05T00:19:25.832Z,21.47
2017-08-05T00:19:30.192Z,21.46
2017-08-05T00:19:34.674Z,21.46
2017-08-05T00:19:39.138Z,21.47
2017-08-05T00:19:43.619Z,21.46
2017-08-05T00:19:47.981Z,21.46
2017-08-05T00:19:52.326Z,21.45
2017-08-05T00:19:56.812Z,21.45
2017-08-05T00:20:01.281Z,21.45
2017-08-05T00:20:05.513Z,21.45
2017-08-05T00:20:09.920Z,21.45
2017-08-05T00:20:14.269Z,21.45
2017-08-05T00:20:18.729Z,21.45
2017-08-05T00:20:23.198Z,21.44
2017-08-05T00:20:27.548Z,21.44
2017-08-05T00:20:32.004Z,21.44
2017-08-05T00:20:36.468Z,21.43
2017-08-05T00:20:40.827Z,21.44
2017-08-05T00:20:45.285Z,21.43
2017-08-05T00:20:49.753Z,21.43
2017-08-05T00:20:54.120Z,21.43
2017-08-05T00:20:58.571Z,21.42
2017-08-05T00:21:02.800Z,21.43
2017-08-05T00:21:07.263Z,21.42
2017-08-05T00:21:11.721Z,21.42
2017-08-05T00:21:16.172Z,21.42
2017-08-05T00:21:20.398Z,21.42
2017-08-05T00:21:24.757Z,21.42
2017-08-05T00:21:29.220Z,21.42
2017-08-05T00:21:33.671Z,21.41
2017-08-05T00:21:38.012Z,21.41
2017-08-05T00:21:42.464Z,21.41
2017-08-05T00:21:46.934Z,21.41
2017-08-05T00:21:51.409Z,21.41
2017-08-05T00:21:55.870Z,21.4
2017-08-05T00:22:00.225Z,21.4
2017-08-05T00:22:04.561Z,21.4
2017-08-05T00:22:08.914Z,21.4
2017-08-05T00:22:13.250Z,21.4
2017-08-05T00:22:17.616Z,21.4
2017-08-05T00:22:22.100Z,21.39
2017-08-05T00:22:26.564Z,21.39
2017-08-05T00:22:30.920Z,21.39
2017-08-05T00:22:35.280Z,21.39
2017-08-05T00:22:39.742Z,21.38
2017-08-05T00:22:44.201Z,21.39
2017-08-05T00:22:48.571Z,21.38
2017-08-05T00:22:53.042Z,21.38
2017-08-05T00:22:57.370Z,21.38
2017-08-05T00:23:01.833Z,21.38
2017-08-05T00:23:06.300Z,21.37
2017-08-05T00:23:10.765Z,21.37
2017-08-05T00:23:15.249Z,21.37
2017-08-05T00:23:19.717Z,21.37
2017-08-05T00:23:24.175Z,21.37
2017-08-05T00:23:28.529Z,21.36
2017-08-05T00:23:32.864Z,21.37
2017-08-05T00:23:37.222Z,21.36
2017-08-05T00:23:41.688Z,21.36
2017-08-05T00:23:46.045Z,21.36
2017-08-05T00:23:50.506Z,21.35
2017-08-05T00:23:54.974Z,21.36
2017-08-05T00:23:59.214Z,21.35
2017-08-05T00:24:03.571Z,21.35
2017-08-05T00:24:07.798Z,21.36
2017-08-05T00:24:12.262Z,21.35
2017-08-05T00:24:16.600Z,21.34
2017-08-05T00:24:20.938Z,21.35
2017-08-05T00:24:25.396Z,21.34
2017-08-05T00:24:29.750Z,21.35
2017-08-05T00:24:34.215Z,21.34
2017-08-05T00:24:38.696Z,21.34
2017-08-05T00:24:43.180Z,21.35
2017-08-05T00:24:47.640Z,21.34
2017-08-05T00:24:52.092Z,21.34
2017-08-05T00:24:56.561Z,21.34
2017-08-05T00:25:01.086Z,21.33
2017-08-05T00:25:05.793Z,21.34
2017-08-05T00:25:10.272Z,21.33
2017-08-05T00:25:14.723Z,21.33
2017-08-05T00:25:19.191Z,21.33
2017-08-05T00:25:23.658Z,21.33
2017-08-05T00:25:28.110Z,21.32
2017-08-05T00:25:32.449Z,21.32
2017-08-05T00:25:36.938Z,21.33
2017-08-05T00:25:41.408Z,21.32
2017-08-05T00:25:45.733Z,21.32
2017-08-05T00:25:50.211Z,21.32
2017-08-05T00:25:54.680Z,21.32
2017-08-05T00:25:59.018Z,21.32
2017-08-05T00:26:03.478Z,21.32
2017-08-05T00:26:07.822Z,21.31
2017-08-05T00:26:12.291Z,21.31
2017-08-05T00:26:16.656Z,21.3
2017-08-05T00:26:21.120Z,21.31
2017-08-05T00:26:25.578Z,21.3
2017-08-05T00:26:30.038Z,21.3
2017-08-05T00:26:34.371Z,21.3
2017-08-05T00:26:38.717Z,21.3
2017-08-05T00:26:43.194Z,21.3
2017-08-05T00:26:47.674Z,21.3
2017-08-05T00:26:52.040Z,21.29
2017-08-05T00:26:56.502Z,21.3
2017-08-05T00:27:00.841Z,21.29
2017-08-05T00:27:05.695Z,21.3
2017-08-05T00:27:10.155Z,21.3
2017-08-05T00:27:14.520Z,21.29
2017-08-05T00:27:18.859Z,21.29
2017-08-05T00:27:23.311Z,21.29
2017-08-05T00:27:27.664Z,21.29
2017-08-05T00:27:32.002Z,21.29
2017-08-05T00:27:36.475Z,21.28
2017-08-05T00:27:40.958Z,21.29
2017-08-05T00:27:45.419Z,21.28
2017-08-05T00:27:49.887Z,21.28
2017-08-05T00:27:54.355Z,21.28
2017-08-05T00:27:58.840Z,21.29
2017-08-05T00:28:03.306Z,21.28
2017-08-05T00:28:07.648Z,21.28
2017-08-05T00:28:12.108Z,21.28
2017-08-05T00:28:16.464Z,21.27
2017-08-05T00:28:20.690Z,21.28
2017-08-05T00:28:25.150Z,21.28
2017-08-05T00:28:29.499Z,21.28
2017-08-05T00:28:33.946Z,21.28
2017-08-05T00:28:38.425Z,21.27
2017-08-05T00:28:42.878Z,21.27
2017-08-05T00:28:47.350Z,21.27
2017-08-05T00:28:51.707Z,21.27
2017-08-05T00:28:56.045Z,21.27
2017-08-05T00:29:00.539Z,21.26
2017-08-05T00:29:05.007Z,21.26
2017-08-05T00:29:09.476Z,21.26
2017-08-05T00:29:13.825Z,21.26
2017-08-05T00:29:18.302Z,21.25
2017-08-05T00:29:22.765Z,21.25
2017-08-05T00:29:27.123Z,21.25
2017-08-05T00:29:31.448Z,21.26
2017-08-05T00:29:35.931Z,21.26
2017-08-05T00:29:40.301Z,21.25
2017-08-05T00:29:44.761Z,21.25
2017-08-05T00:29:49.225Z,21.25
2017-08-05T00:29:53.587Z,21.24
2017-08-05T00:29:58.040Z,21.24
2017-08-05T00:30:02.857Z,21.24
2017-08-05T00:30:07.118Z,21.24
2017-08-05T00:30:11.458Z,21.24
2017-08-05T00:30:15.815Z,21.24
2017-08-05T00:30:20.292Z,21.24
2017-08-05T00:30:24.517Z,21.23
2017-08-05T00:30:28.733Z,21.23
2017-08-05T00:30:33.090Z,21.23
2017-08-05T00:30:37.554Z,21.22
2017-08-05T00:30:42.013Z,21.23
2017-08-05T00:30:46.493Z,21.22
2017-08-05T00:30:50.959Z,21.22
2017-08-05T00:30:55.300Z,21.23
2017-08-05T00:30:59.640Z,21.22
2017-08-05T00:31:04.117Z,21.22
2017-08-05T00:31:08.589Z,21.22
2017-08-05T00:31:12.938Z,21.22
2017-08-05T00:31:17.053Z,21.21
2017-08-05T00:31:21.413Z,21.21
2017-08-05T00:31:25.873Z,21.21
2017-08-05T00:31:30.222Z,21.2
2017-08-05T00:31:34.709Z,21.2
2017-08-05T00:31:38.935Z,21.2
2017-08-05T00:31:43.405Z,21.2
2017-08-05T00:31:47.873Z,21.2
2017-08-05T00:31:52.328Z,21.2
2017-08-05T00:31:56.680Z,21.2
2017-08-05T00:32:01.139Z,21.2
2017-08-05T00:32:05.659Z,21.19
2017-08-05T00:32:09.894Z,21.19
2017-08-05T00:32:14.242Z,21.19
2017-08-05T00:32:18.701Z,21.19
2017-08-05T00:32:23.039Z,21.19
2017-08-05T00:32:27.518Z,21.18
2017-08-05T00:32:31.861Z,21.18
2017-08-05T00:32:36.189Z,21.18
2017-08-05T00:32:40.666Z,21.18
2017-08-05T00:32:45.137Z,21.17
2017-08-05T00:32:49.588Z,21.17
2017-08-05T00:32:53.828Z,21.17
2017-08-05T00:32:58.292Z,21.17
2017-08-05T00:33:02.683Z,21.17
2017-08-05T00:33:07.039Z,21.16
2017-08-05T00:33:11.506Z,21.16
2017-08-05T00:33:15.982Z,21.15
2017-08-05T00:33:20.205Z,21.15
2017-08-05T00:33:24.671Z,21.15
2017-08-05T00:33:29.007Z,21.15
2017-08-05T00:33:33.468Z,21.15
2017-08-05T00:33:37.803Z,21.14
2017-08-05T00:33:42.267Z,21.14
2017-08-05T00:33:46.624Z,21.14
2017-08-05T00:33:51.082Z,21.14
2017-08-05T00:33:55.309Z,21.14
2017-08-05T00:33:59.647Z,21.13
2017-08-05T00:34:04.110Z,21.13
2017-08-05T00:34:08.468Z,21.13
2017-08-05T00:34:12.918Z,21.12
2017-08-05T00:34:17.277Z,21.13
2017-08-05T00:34:21.278Z,21.12
2017-08-05T00:34:25.729Z,21.12
2017-08-05T00:34:30.075Z,21.11
2017-08-05T00:34:34.553Z,21.12
2017-08-05T00:34:38.783Z,21.12
2017-08-05T00:34:43.127Z,21.11
2017-08-05T00:34:47.488Z,21.1
2017-08-05T00:34:51.953Z,21.1
2017-08-05T00:34:56.416Z,21.1
2017-08-05T00:35:00.826Z,21.1
2017-08-05T00:35:05.318Z,21.09
2017-08-05T00:35:09.665Z,21.09
2017-08-05T00:35:14.131Z,21.09
2017-08-05T00:35:18.363Z,21.09
2017-08-05T00:35:22.727Z,21.09
2017-08-05T00:35:27.188Z,21.09
2017-08-05T00:35:31.542Z,21.09
2017-08-05T00:35:35.907Z,21.08
2017-08-05T00:35:40.230Z,21.08
2017-08-05T00:35:44.677Z,21.07
2017-08-05T00:35:49.128Z,21.07
2017-08-05T00:35:53.588Z,21.07
2017-08-05T00:35:58.057Z,21.07
2017-08-05T00:36:02.529Z,21.07
2017-08-05T00:36:07.028Z,21.06
2017-08-05T00:36:11.358Z,21.06
2017-08-05T00:36:15.701Z,21.06
2017-08-05T00:36:19.827Z,21.05
2017-08-05T00:36:24.154Z,21.05
2017-08-05T00:36:28.497Z,21.05
2017-08-05T00:36:32.834Z,21.04
2017-08-05T00:36:37.298Z,21.04
2017-08-05T00:36:41.654Z,21.05
2017-08-05T00:36:46.123Z,21.03
2017-08-05T00:36:50.602Z,21.04
2017-08-05T00:36:55.070Z,21.03
2017-08-05T00:36:59.547Z,21.03
2017-08-05T00:37:04.052Z,21.03
2017-08-05T00:37:08.498Z,21.03
2017-08-05T00:37:12.972Z,21.02
2017-08-05T00:37:17.322Z,21.02
2017-08-05T00:37:21.794Z,21.02
2017-08-05T00:37:26.261Z,21.02
2017-08-05T00:37:30.630Z,21.02
2017-08-05T00:37:35.093Z,21.02
2017-08-05T00:37:39.438Z,21.01
2017-08-05T00:37:43.923Z,21.01
2017-08-05T00:37:48.368Z,21.01
2017-08-05T00:37:52.833Z,21
2017-08-05T00:37:57.186Z,21
2017-08-05T00:38:01.659Z,21
2017-08-05T00:38:05.891Z,21
2017-08-05T00:38:10.125Z,20.99
2017-08-05T00:38:14.586Z,21
2017-08-05T00:38:19.053Z,20.99
2017-08-05T00:38:23.519Z,20.99
2017-08-05T00:38:28.009Z,20.99
2017-08-05T00:38:32.340Z,20.99
2017-08-05T00:38:36.689Z,20.98
2017-08-05T00:38:40.920Z,20.99
2017-08-05T00:38:45.380Z,20.98
2017-08-05T00:38:49.836Z,20.98
2017-08-05T00:38:54.311Z,20.98
2017-08-05T00:38:58.793Z,20.97
2017-08-05T00:39:03.577Z,20.97
2017-08-05T00:39:08.058Z,20.96
2017-08-05T00:39:12.519Z,20.97
2017-08-05T00:39:16.980Z,20.96
2017-08-05T00:39:21.324Z,20.96
2017-08-05T00:39:25.666Z,20.95
2017-08-05T00:39:30.130Z,20.95
2017-08-05T00:39:34.357Z,20.95
2017-08-05T00:39:38.820Z,20.94
2017-08-05T00:39:43.284Z,20.96
2017-08-05T00:39:47.752Z,20.94
2017-08-05T00:39:52.218Z,20.94
2017-08-05T00:39:56.680Z,20.94
2017-08-05T00:40:01.042Z,20.94
2017-08-05T00:40:05.584Z,20.94
2017-08-05T00:40:09.939Z,20.93
2017-08-05T00:40:14.410Z,20.93
2017-08-05T00:40:18.622Z,20.93
2017-08-05T00:40:23.091Z,20.93
2017-08-05T00:40:27.447Z,20.92
2017-08-05T00:40:31.921Z,20.91
2017-08-05T00:40:36.041Z,20.92
2017-08-05T00:40:40.393Z,20.92
2017-08-05T00:40:44.851Z,20.91
2017-08-05T00:40:49.205Z,20.92
2017-08-05T00:40:53.671Z,20.91
2017-08-05T00:40:58.141Z,20.91
2017-08-05T00:41:02.595Z,20.9
2017-08-05T00:41:07.056Z,20.91
2017-08-05T00:41:11.412Z,20.9
2017-08-05T00:41:15.871Z,20.9
2017-08-05T00:41:20.339Z,20.9
2017-08-05T00:41:24.810Z,20.89
2017-08-05T00:41:29.281Z,20.89
2017-08-05T00:41:33.765Z,20.9
2017-08-05T00:41:38.234Z,20.9
2017-08-05T00:41:42.599Z,20.89
2017-08-05T00:41:47.052Z,20.89
2017-08-05T00:41:51.525Z,20.89
2017-08-05T00:41:55.981Z,20.89
2017-08-05T00:42:00.312Z,20.89
2017-08-05T00:42:04.644Z,20.89
2017-08-05T00:42:09.017Z,20.89
2017-08-05T00:42:13.477Z,20.89
2017-08-05T00:42:17.947Z,20.89
2017-08-05T00:42:22.304Z,20.88
2017-08-05T00:42:26.769Z,20.88
2017-08-05T00:42:30.984Z,20.88
2017-08-05T00:42:35.332Z,20.88
2017-08-05T00:42:39.791Z,20.87
2017-08-05T00:42:44.134Z,20.87
2017-08-05T00:42:48.600Z,20.87
2017-08-05T00:42:53.068Z,20.86
2017-08-05T00:42:57.523Z,20.86
2017-08-05T00:43:02.017Z,20.87
2017-08-05T00:43:06.478Z,20.86
2017-08-05T00:43:10.943Z,20.86
2017-08-05T00:43:15.402Z,20.85
2017-08-05T00:43:19.851Z,20.86
2017-08-05T00:43:24.074Z,20.85
2017-08-05T00:43:28.430Z,20.86
2017-08-05T00:43:32.660Z,20.86
2017-08-05T00:43:37.109Z,20.85
2017-08-05T00:43:41.454Z,20.85
2017-08-05T00:43:45.931Z,20.85
2017-08-05T00:43:50.257Z,20.84
2017-08-05T00:43:54.490Z,20.85
2017-08-05T00:43:58.830Z,20.85
2017-08-05T00:44:03.294Z,20.84
2017-08-05T00:44:07.634Z,20.85
2017-08-05T00:44:12.097Z,20.84
2017-08-05T00:44:16.553Z,20.84
2017-08-05T00:44:21.010Z,20.84
2017-08-05T00:44:25.358Z,20.84
2017-08-05T00:44:29.828Z,20.84
2017-08-05T00:44:34.284Z,20.83
2017-08-05T00:44:38.769Z,20.83
2017-08-05T00:44:43.212Z,20.84
2017-08-05T00:44:47.427Z,20.83
2017-08-05T00:44:51.793Z,20.83
2017-08-05T00:44:56.264Z,20.82
2017-08-05T00:45:00.727Z,20.83
2017-08-05T00:45:05.091Z,20.83
2017-08-05T00:45:09.572Z,20.82
2017-08-05T00:45:14.040Z,20.82
2017-08-05T00:45:18.380Z,20.82
2017-08-05T00:45:22.846Z,20.83
2017-08-05T00:45:27.078Z,20.82
2017-08-05T00:45:31.306Z,20.82
2017-08-05T00:45:35.657Z,20.82
2017-08-05T00:45:40.115Z,20.82
2017-08-05T00:45:44.461Z,20.81
2017-08-05T00:45:48.913Z,20.82
2017-08-05T00:45:53.376Z,20.82
2017-08-05T00:45:57.822Z,20.82
2017-08-05T00:46:02.293Z,20.81
2017-08-05T00:46:06.654Z,20.82
2017-08-05T00:46:11.121Z,20.81
2017-08-05T00:46:15.356Z,20.81
2017-08-05T00:46:19.822Z,20.8
2017-08-05T00:46:24.297Z,20.8
2017-08-05T00:46:28.757Z,20.8
2017-08-05T00:46:33.217Z,20.8
2017-08-05T00:46:37.673Z,20.8
2017-08-05T00:46:42.014Z,20.79
2017-08-05T00:46:46.478Z,20.8
2017-08-05T00:46:50.930Z,20.8
2017-08-05T00:46:55.290Z,20.79
2017-08-05T00:46:59.633Z,20.8
2017-08-05T00:47:03.986Z,20.8
2017-08-05T00:47:08.456Z,20.79
2017-08-05T00:47:12.806Z,20.79
2017-08-05T00:47:17.266Z,20.79
2017-08-05T00:47:21.479Z,20.79
2017-08-05T00:47:25.953Z,20.8
2017-08-05T00:47:30.299Z,20.79
2017-08-05T00:47:34.772Z,20.79
2017-08-05T00:47:39.118Z,20.79
2017-08-05T00:47:43.588Z,20.8
2017-08-05T00:47:48.044Z,20.79
2017-08-05T00:47:52.490Z,20.79
2017-08-05T00:47:56.955Z,20.79
2017-08-05T00:48:01.410Z,20.79
2017-08-05T00:48:05.878Z,20.79
2017-08-05T00:48:10.346Z,20.79
2017-08-05T00:48:14.810Z,20.79
2017-08-05T00:48:19.163Z,20.79
2017-08-05T00:48:23.623Z,20.79
2017-08-05T00:48:28.098Z,20.79
2017-08-05T00:48:32.577Z,20.78
2017-08-05T00:48:36.930Z,20.79
2017-08-05T00:48:41.273Z,20.79
2017-08-05T00:48:45.731Z,20.79
2017-08-05T00:48:50.244Z,20.78
2017-08-05T00:48:54.700Z,20.79
2017-08-05T00:48:59.157Z,20.79
2017-08-05T00:49:03.630Z,20.79
2017-08-05T00:49:07.965Z,20.78
2017-08-05T00:49:12.429Z,20.79
2017-08-05T00:49:16.758Z,20.78
2017-08-05T00:49:21.212Z,20.79
2017-08-05T00:49:25.676Z,20.78
2017-08-05T00:49:30.159Z,20.78
2017-08-05T00:49:34.646Z,20.79
2017-08-05T00:49:39.120Z,20.79
2017-08-05T00:49:43.593Z,20.78
2017-08-05T00:49:48.061Z,20.78
2017-08-05T00:49:52.517Z,20.78
2017-08-05T00:49:56.851Z,20.78
2017-08-05T00:50:01.312Z,20.78
2017-08-05T00:50:05.783Z,20.77
2017-08-05T00:50:10.004Z,20.78
2017-08-05T00:50:14.470Z,20.78
2017-08-05T00:50:18.824Z,20.78
2017-08-05T00:50:23.287Z,20.78
2017-08-05T00:50:27.747Z,20.78
2017-08-05T00:50:32.095Z,20.78
2017-08-05T00:50:36.431Z,20.77
2017-08-05T00:50:40.891Z,20.77
2017-08-05T00:50:45.347Z,20.77
2017-08-05T00:50:49.700Z,20.78
2017-08-05T00:50:54.173Z,20.76
2017-08-05T00:50:58.388Z,20.78
2017-08-05T00:51:02.845Z,20.77
2017-08-05T00:51:07.303Z,20.77
2017-08-05T00:51:11.678Z,20.76
2017-08-05T00:51:16.147Z,20.77
2017-08-05T00:51:20.612Z,20.77
2017-08-05T00:51:24.963Z,20.77
2017-08-05T00:51:29.444Z,20.76
2017-08-05T00:51:33.916Z,20.77
2017-08-05T00:51:38.145Z,20.76
2017-08-05T00:51:42.482Z,20.76
2017-08-05T00:51:46.946Z,20.76
2017-08-05T00:51:51.430Z,20.76
2017-08-05T00:51:55.874Z,20.76
2017-08-05T00:52:00.334Z,20.77
2017-08-05T00:52:04.611Z,20.76
2017-08-05T00:52:08.820Z,20.76
2017-08-05T00:52:13.163Z,20.76
2017-08-05T00:52:17.517Z,20.76
2017-08-05T00:52:21.995Z,20.76
2017-08-05T00:52:26.452Z,20.76
2017-08-05T00:52:30.932Z,20.76
2017-08-05T00:52:35.401Z,20.75
2017-08-05T00:52:39.746Z,20.76
2017-08-05T00:52:44.102Z,20.76
2017-08-05T00:52:48.578Z,20.75
2017-08-05T00:52:53.038Z,20.75
2017-08-05T00:52:57.512Z,20.75
2017-08-05T00:53:01.972Z,20.76
2017-08-05T00:53:06.438Z,20.76
2017-08-05T00:53:10.785Z,20.76
2017-08-05T00:53:15.135Z,20.76
2017-08-05T00:53:19.265Z,20.76
2017-08-05T00:53:23.734Z,20.76
2017-08-05T00:53:28.200Z,20.76
2017-08-05T00:53:32.557Z,20.76
2017-08-05T00:53:37.006Z,20.76
2017-08-05T00:53:41.236Z,20.76
2017-08-05T00:53:45.702Z,20.76
2017-08-05T00:53:50.034Z,20.76
2017-08-05T00:53:54.500Z,20.75
2017-08-05T00:53:58.973Z,20.76
2017-08-05T00:54:03.324Z,20.76
2017-08-05T00:54:07.549Z,20.76
2017-08-05T00:54:12.030Z,20.76
2017-08-05T00:54:16.380Z,20.76
2017-08-05T00:54:20.721Z,20.77
2017-08-05T00:54:25.069Z,20.76
2017-08-05T00:54:29.400Z,20.77
2017-08-05T00:54:33.852Z,20.76
2017-08-05T00:54:38.210Z,20.76
2017-08-05T00:54:42.327Z,20.77
2017-08-05T00:54:46.792Z,20.76
2017-08-05T00:54:51.268Z,20.76
2017-08-05T00:54:55.745Z,20.76
2017-08-05T00:55:00.219Z,20.76
2017-08-05T00:55:04.585Z,20.77
2017-08-05T00:55:08.816Z,20.77
2017-08-05T00:55:13.272Z,20.76
2017-08-05T00:55:17.737Z,20.77
2017-08-05T00:55:22.187Z,20.76
2017-08-05T00:55:26.639Z,20.77
2017-08-05T00:55:30.980Z,20.77
2017-08-05T00:55:35.440Z,20.76
2017-08-05T00:55:39.913Z,20.77
2017-08-05T00:55:44.273Z,20.76
2017-08-05T00:55:48.725Z,20.77
2017-08-05T00:55:53.077Z,20.76
2017-08-05T00:55:57.570Z,20.77
2017-08-05T00:56:02.054Z,20.77
2017-08-05T00:56:06.395Z,20.77
2017-08-05T00:56:10.744Z,20.77
2017-08-05T00:56:15.088Z,20.76
2017-08-05T00:56:19.556Z,20.76
2017-08-05T00:56:24.026Z,20.76
2017-08-05T00:56:28.489Z,20.77
2017-08-05T00:56:32.953Z,20.77
2017-08-05T00:56:37.425Z,20.77
2017-08-05T00:56:41.776Z,20.77
2017-08-05T00:56:46.240Z,20.78
2017-08-05T00:56:50.715Z,20.77
2017-08-05T00:56:55.065Z,20.78